
Distance (Route):
Temperature : -59.7°C
Humidity : 1.2%
Pressure : 0hPa| Receiver | Frames | First received | Last received |
|---|---|---|---|
| LZ4TU-5 | 80 | 2026-09-04 11:38:18 | 2026-09-04 12:46:31 |
| Receiver | Date | Latitude | Longitude | Direction | Speed | Altitude | Climb | Temperature | Humidity | Pressure | Voltage | Killtimer | Uptime | BKT | XDATA |
|---|---|---|---|---|---|---|---|---|---|---|---|---|---|---|---|
| LZ4TU-5 | 2026-09-04 12:46:31 | 42.81727 | 20.01942 | 169° | 60km/h | 13651m | -25.6m/s | -59.7°C | 1.2% | 0hPa | 0V | 00:00:00 | 00:00:00 | 00:00:00 | |
| LZ4TU-5 | 2026-09-04 12:46:26 | 42.81803 | 20.01917 | 166° | 64km/h | 13778m | -25.8m/s | -58.9°C | 0.6% | 0hPa | 0V | 00:00:00 | 00:00:00 | 00:00:00 | |
| LZ4TU-5 | 2026-09-04 12:44:31 | 42.82712 | 20.01279 | 108° | 35km/h | 17060m | -32.7m/s | -58.1°C | 0.0% | 0hPa | 0V | 00:00:00 | 00:00:00 | 00:00:00 | |
| LZ4TU-5 | 2026-09-04 12:44:26 | 42.82727 | 20.01219 | 112° | 40km/h | 17224m | -33.2m/s | -58.4°C | 0.0% | 0hPa | 0V | 00:00:00 | 00:00:00 | 00:00:00 | |
| LZ4TU-5 | 2026-09-04 12:39:48 | 42.82836 | 20.01068 | 224° | 47km/h | 31824m | -37.7m/s | -38.3°C | 2.3% | 0hPa | 0V | 00:00:00 | 00:00:00 | 00:00:00 | |
| LZ4TU-5 | 2026-09-04 12:39:44 | 42.82859 | 20.01126 | 249° | 49km/h | 31903m | -4.6m/s | -38.2°C | 2.3% | 0hPa | 0V | 00:00:00 | 00:00:00 | 00:00:00 | |
| LZ4TU-5 | 2026-09-04 12:39:38 | 42.82873 | 20.01208 | 304° | 24km/h | 31863m | 6.9m/s | -38.2°C | 2.3% | 0hPa | 0V | 00:00:00 | 00:00:00 | 00:00:00 | |
| LZ4TU-5 | 2026-09-04 12:37:43 | 42.83070 | 20.01983 | 237° | 26km/h | 31042m | 7.5m/s | -40.1°C | 2.2% | 0hPa | 0V | 00:00:00 | 00:00:00 | 00:00:00 | |
| LZ4TU-5 | 2026-09-04 12:37:38 | 42.83081 | 20.02003 | 171° | 13km/h | 31006m | 9.4m/s | -40.2°C | 2.2% | 0hPa | 0V | 00:00:00 | 00:00:00 | 00:00:00 | |
| LZ4TU-5 | 2026-09-04 12:35:43 | 42.83219 | 20.02196 | 327° | 16km/h | 30227m | 4.6m/s | -41.3°C | 2.1% | 0hPa | 0V | 00:00:00 | 00:00:00 | 00:00:00 | |
| LZ4TU-5 | 2026-09-04 12:35:38 | 42.83224 | 20.02226 | 220° | 9km/h | 30193m | 3.6m/s | -41.1°C | 2.0% | 0hPa | 0V | 00:00:00 | 00:00:00 | 00:00:00 | |
| LZ4TU-5 | 2026-09-04 12:33:32 | 42.83270 | 20.02297 | 5° | 5km/h | 29325m | 7.2m/s | -42.6°C | 1.9% | 0hPa | 0V | 00:00:00 | 00:00:00 | 00:00:00 | |
| LZ4TU-5 | 2026-09-04 12:33:27 | 42.83237 | 20.02303 | 354° | 24km/h | 29293m | 5.7m/s | -42.9°C | 2.0% | 0hPa | 0V | 00:00:00 | 00:00:00 | 00:00:00 | |
| LZ4TU-5 | 2026-09-04 12:31:24 | 42.83111 | 20.02585 | 106° | 20km/h | 28478m | 6.5m/s | -44.0°C | 1.7% | 0hPa | 0V | 00:00:00 | 00:00:00 | 00:00:00 | |
| LZ4TU-5 | 2026-09-04 12:31:19 | 42.83114 | 20.02577 | 246° | 18km/h | 28445m | 9.8m/s | -44.1°C | 1.7% | 0hPa | 0V | 00:00:00 | 00:00:00 | 00:00:00 | |
| LZ4TU-5 | 2026-09-04 12:29:22 | 42.82782 | 20.02704 | 62° | 15km/h | 27669m | 8.9m/s | -45.3°C | 1.5% | 0hPa | 0V | 00:00:00 | 00:00:00 | 00:00:00 | |
| LZ4TU-5 | 2026-09-04 12:29:18 | 42.82770 | 20.02677 | 356° | 16km/h | 27646m | 4.8m/s | -45.4°C | 1.5% | 0hPa | 0V | 00:00:00 | 00:00:00 | 00:00:00 | |
| LZ4TU-5 | 2026-09-04 12:27:23 | 42.82561 | 20.02909 | 221° | 18km/h | 26890m | 6.8m/s | -47.5°C | 1.7% | 0hPa | 0V | 00:00:00 | 00:00:00 | 00:00:00 | |
| LZ4TU-5 | 2026-09-04 12:27:19 | 42.82575 | 20.02946 | 251° | 26km/h | 26864m | 5.4m/s | -47.3°C | 1.7% | 0hPa | 0V | 00:00:00 | 00:00:00 | 00:00:00 | |
| LZ4TU-5 | 2026-09-04 12:27:15 | 42.82584 | 20.02957 | 153° | 13km/h | 26839m | 5.1m/s | -47.3°C | 1.7% | 0hPa | 0V | 00:00:00 | 00:00:00 | 00:00:00 | |
| LZ4TU-5 | 2026-09-04 12:27:10 | 42.82590 | 20.02960 | 248° | 22km/h | 26805m | 7.8m/s | -47.2°C | 1.7% | 0hPa | 0V | 00:00:00 | 00:00:00 | 00:00:00 | |
| LZ4TU-5 | 2026-09-04 12:25:13 | 42.82857 | 20.02719 | 100° | 13km/h | 26011m | 6.7m/s | -48.0°C | 1.7% | 0hPa | 0V | 00:00:00 | 00:00:00 | 00:00:00 | |
| LZ4TU-5 | 2026-09-04 12:25:08 | 42.82864 | 20.02706 | 126° | 9km/h | 25977m | 7.5m/s | -48.0°C | 1.7% | 0hPa | 0V | 00:00:00 | 00:00:00 | 00:00:00 | |
| LZ4TU-5 | 2026-09-04 12:23:02 | 42.82776 | 20.02337 | 20° | 15km/h | 25151m | 5.7m/s | -48.3°C | 1.1% | 0hPa | 0V | 00:00:00 | 00:00:00 | 00:00:00 | |
| LZ4TU-5 | 2026-09-04 12:22:57 | 42.82765 | 20.02318 | 84° | 24km/h | 25122m | 4.0m/s | -48.6°C | 1.1% | 0hPa | 0V | 00:00:00 | 00:00:00 | 00:00:00 | |
| LZ4TU-5 | 2026-09-04 12:20:55 | 42.82397 | 20.02437 | 266° | 9km/h | 24344m | 6.4m/s | -49.8°C | 1.0% | 0hPa | 0V | 00:00:00 | 00:00:00 | 00:00:00 | |
| LZ4TU-5 | 2026-09-04 12:20:50 | 42.82397 | 20.02456 | 353° | 16km/h | 24311m | 7.4m/s | -49.8°C | 1.0% | 0hPa | 0V | 00:00:00 | 00:00:00 | 00:00:00 | |
| LZ4TU-5 | 2026-09-04 12:19:03 | 42.82191 | 20.02572 | 297° | 24km/h | 23615m | 5.2m/s | -50.1°C | 1.1% | 0hPa | 0V | 00:00:00 | 00:00:00 | 00:00:00 | |
| LZ4TU-5 | 2026-09-04 12:18:58 | 42.82182 | 20.02579 | 53° | 9km/h | 23583m | 6.9m/s | -50.3°C | 1.1% | 0hPa | 0V | 00:00:00 | 00:00:00 | 00:00:00 | |
| LZ4TU-5 | 2026-09-04 12:17:11 | 42.82125 | 20.02633 | 337° | 15km/h | 22928m | 5.7m/s | -53.0°C | 1.1% | 0hPa | 0V | 00:00:00 | 00:00:00 | 00:00:00 | |
| LZ4TU-5 | 2026-09-04 12:17:06 | 42.82121 | 20.02638 | 90° | 7km/h | 22897m | 4.2m/s | -52.9°C | 1.0% | 0hPa | 0V | 00:00:00 | 00:00:00 | 00:00:00 | |
| LZ4TU-5 | 2026-09-04 12:15:11 | 42.82027 | 20.02810 | 26° | 20km/h | 22170m | 6.7m/s | -52.7°C | 1.0% | 0hPa | 0V | 00:00:00 | 00:00:00 | 00:00:00 | |
| LZ4TU-5 | 2026-09-04 12:15:06 | 42.82006 | 20.02809 | 358° | 18km/h | 22139m | 7.6m/s | -52.8°C | 0.9% | 0hPa | 0V | 00:00:00 | 00:00:00 | 00:00:00 | |
| LZ4TU-5 | 2026-09-04 12:13:06 | 42.81946 | 20.02990 | 315° | 7km/h | 21407m | 5.4m/s | -54.6°C | 0.8% | 0hPa | 0V | 00:00:00 | 00:00:00 | 00:00:00 | |
| LZ4TU-5 | 2026-09-04 12:13:01 | 42.81949 | 20.02984 | 160° | 11km/h | 21380m | 6.4m/s | -54.6°C | 0.8% | 0hPa | 0V | 00:00:00 | 00:00:00 | 00:00:00 | |
| LZ4TU-5 | 2026-09-04 12:10:56 | 42.81800 | 20.03272 | 284° | 11km/h | 20634m | 7.9m/s | -54.4°C | 0.8% | 0hPa | 0V | 00:00:00 | 00:00:00 | 00:00:00 | |
| LZ4TU-5 | 2026-09-04 12:10:51 | 42.81805 | 20.03288 | 233° | 20km/h | 20604m | 5.9m/s | -54.4°C | 0.7% | 0hPa | 0V | 00:00:00 | 00:00:00 | 00:00:00 | |
| LZ4TU-5 | 2026-09-04 12:08:55 | 42.82047 | 20.03292 | 37° | 13km/h | 19937m | 5.8m/s | -56.7°C | 1.1% | 0hPa | 0V | 00:00:00 | 00:00:00 | 00:00:00 | |
| LZ4TU-5 | 2026-09-04 12:08:50 | 42.82042 | 20.03276 | 163° | 7km/h | 19908m | 5.1m/s | -56.8°C | 1.1% | 0hPa | 0V | 00:00:00 | 00:00:00 | 00:00:00 | |
| LZ4TU-5 | 2026-09-04 12:06:49 | 42.82147 | 20.02848 | 115° | 22km/h | 19191m | 5.8m/s | -56.8°C | 0.6% | 0hPa | 0V | 00:00:00 | 00:00:00 | 00:00:00 | |
| LZ4TU-5 | 2026-09-04 12:06:44 | 42.82142 | 20.02813 | 84° | 26km/h | 19162m | 6.5m/s | -57.1°C | 0.7% | 0hPa | 0V | 00:00:00 | 00:00:00 | 00:00:00 | |
| LZ4TU-5 | 2026-09-04 12:06:38 | 42.82146 | 20.02760 | 73° | 26km/h | 19128m | 4.8m/s | -57.9°C | 0.9% | 0hPa | 0V | 00:00:00 | 00:00:00 | 00:00:00 | |
| LZ4TU-5 | 2026-09-04 12:06:33 | 42.82138 | 20.02724 | 64° | 27km/h | 19098m | 4.9m/s | -57.8°C | 0.9% | 0hPa | 0V | 00:00:00 | 00:00:00 | 00:00:00 | |
| LZ4TU-5 | 2026-09-04 12:04:37 | 42.81921 | 20.02617 | 109° | 9km/h | 18397m | 6.7m/s | -55.7°C | 1.5% | 0hPa | 0V | 00:00:00 | 00:00:00 | 00:00:00 | |
| LZ4TU-5 | 2026-09-04 12:04:33 | 42.81923 | 20.02614 | 234° | 5km/h | 18375m | 3.9m/s | -55.7°C | 1.5% | 0hPa | 0V | 00:00:00 | 00:00:00 | 00:00:00 | |
| LZ4TU-5 | 2026-09-04 12:04:28 | 42.81942 | 20.02608 | 142° | 16km/h | 18343m | 6.0m/s | -55.5°C | 1.5% | 0hPa | 0V | 00:00:00 | 00:00:00 | 00:00:00 | |
| LZ4TU-5 | 2026-09-04 12:04:23 | 42.81949 | 20.02590 | 136° | 13km/h | 18316m | 5.8m/s | -55.5°C | 1.5% | 0hPa | 0V | 00:00:00 | 00:00:00 | 00:00:00 | |
| LZ4TU-5 | 2026-09-04 12:02:43 | 42.82406 | 20.01855 | 125° | 27km/h | 17769m | 5.5m/s | -57.0°C | 1.4% | 0hPa | 0V | 00:00:00 | 00:00:00 | 00:00:00 | |
| LZ4TU-5 | 2026-09-04 12:02:38 | 42.82431 | 20.01813 | 113° | 37km/h | 17741m | 4.7m/s | -57.2°C | 1.4% | 0hPa | 0V | 00:00:00 | 00:00:00 | 00:00:00 | |
| LZ4TU-5 | 2026-09-04 12:00:55 | 42.82842 | 20.00488 | 98° | 60km/h | 17171m | 6.3m/s | -59.3°C | 1.8% | 0hPa | 0V | 00:00:00 | 00:00:00 | 00:00:00 | |
| LZ4TU-5 | 2026-09-04 12:00:50 | 42.82847 | 20.00417 | 101° | 11km/h | 17144m | 7.5m/s | -59.0°C | 2.0% | 0hPa | 0V | 00:00:00 | 00:00:00 | 00:00:00 | |
| LZ4TU-5 | 2026-09-04 11:59:01 | 42.83006 | 19.99665 | 29° | 20km/h | 16469m | 9.1m/s | -58.5°C | 1.9% | 0hPa | 0V | 00:00:00 | 00:00:00 | 00:00:00 | |
| LZ4TU-5 | 2026-09-04 11:58:56 | 42.82990 | 19.99638 | 97° | 9km/h | 16435m | 7.9m/s | -58.2°C | 1.7% | 0hPa | 0V | 00:00:00 | 00:00:00 | 00:00:00 | |
| LZ4TU-5 | 2026-09-04 11:57:07 | 42.83242 | 19.99444 | 157° | 31km/h | 15778m | 4.2m/s | -55.6°C | 3.4% | 0hPa | 0V | 00:00:00 | 00:00:00 | 00:00:00 | |
| LZ4TU-5 | 2026-09-04 11:57:03 | 42.83268 | 19.99428 | 154° | 33km/h | 15758m | 6.6m/s | -55.7°C | 3.4% | 0hPa | 0V | 00:00:00 | 00:00:00 | 00:00:00 | |
| LZ4TU-5 | 2026-09-04 11:55:17 | 42.84511 | 19.98570 | 135° | 53km/h | 15178m | 6.0m/s | -59.4°C | 4.5% | 0hPa | 0V | 00:00:00 | 00:00:00 | 00:00:00 | |
| LZ4TU-5 | 2026-09-04 11:55:13 | 42.84551 | 19.98510 | 136° | 57km/h | 15156m | 5.0m/s | -59.3°C | 4.6% | 0hPa | 0V | 00:00:00 | 00:00:00 | 00:00:00 | |
| LZ4TU-5 | 2026-09-04 11:53:22 | 42.85646 | 19.97637 | 155° | 58km/h | 14531m | 5.8m/s | -59.6°C | 6.9% | 0hPa | 0V | 00:00:00 | 00:00:00 | 00:00:00 | |
| LZ4TU-5 | 2026-09-04 11:53:17 | 42.85724 | 19.97590 | 150° | 58km/h | 14502m | 5.4m/s | -59.3°C | 7.0% | 0hPa | 0V | 00:00:00 | 00:00:00 | 00:00:00 | |
| LZ4TU-5 | 2026-09-04 11:51:28 | 42.86923 | 19.96754 | 177° | 68km/h | 13845m | 7.6m/s | -58.4°C | 16.5% | 0hPa | 0V | 00:00:00 | 00:00:00 | 00:00:00 | |
| LZ4TU-5 | 2026-09-04 11:51:23 | 42.87016 | 19.96740 | 171° | 66km/h | 13818m | 3.9m/s | -58.3°C | 17.3% | 0hPa | 0V | 00:00:00 | 00:00:00 | 00:00:00 | |
| LZ4TU-5 | 2026-09-04 11:49:28 | 42.88958 | 19.96630 | 187° | 93km/h | 13113m | 5.9m/s | -63.6°C | 37.7% | 0hPa | 0V | 00:00:00 | 00:00:00 | 00:00:00 | |
| LZ4TU-5 | 2026-09-04 11:49:23 | 42.89081 | 19.96656 | 187° | 110km/h | 13079m | 7.0m/s | -63.3°C | 37.4% | 0hPa | 0V | 00:00:00 | 00:00:00 | 00:00:00 | |
| LZ4TU-5 | 2026-09-04 11:47:41 | 42.92075 | 19.97510 | 198° | 126km/h | 12433m | 4.9m/s | -59.4°C | 37.3% | 0hPa | 0V | 00:00:00 | 00:00:00 | 00:00:00 | |
| LZ4TU-5 | 2026-09-04 11:47:36 | 42.92235 | 19.97567 | 194° | 133km/h | 12403m | 4.8m/s | -59.2°C | 0% | 0hPa | 0V | 00:00:00 | 00:00:00 | 00:00:00 | |
| LZ4TU-5 | 2026-09-04 11:45:52 | 42.95462 | 19.98437 | 196° | 130km/h | 11775m | 6.9m/s | -54.8°C | 39.9% | 0hPa | 0V | 00:00:00 | 00:00:00 | 00:00:00 | |
| LZ4TU-5 | 2026-09-04 11:45:48 | 42.95580 | 19.98477 | 192° | 117km/h | 11749m | 6.8m/s | -54.6°C | 39.9% | 0hPa | 0V | 00:00:00 | 00:00:00 | 00:00:00 | |
| LZ4TU-5 | 2026-09-04 11:43:58 | 42.99079 | 19.99036 | 191° | 119km/h | 11019m | 9.3m/s | -48.6°C | 31.0% | 0hPa | 0V | 00:00:00 | 00:00:00 | 00:00:00 | |
| LZ4TU-5 | 2026-09-04 11:43:53 | 42.99226 | 19.99055 | 187° | 130km/h | 10987m | 5.4m/s | -48.3°C | 31.8% | 0hPa | 0V | 00:00:00 | 00:00:00 | 00:00:00 | |
| LZ4TU-5 | 2026-09-04 11:42:20 | 43.01972 | 19.99550 | 191° | 93km/h | 10377m | 4.5m/s | -43.0°C | 26.8% | 0hPa | 0V | 00:00:00 | 00:00:00 | 00:00:00 | |
| LZ4TU-5 | 2026-09-04 11:42:15 | 43.02105 | 19.99597 | 194° | 119km/h | 10351m | 4.2m/s | -42.8°C | 26.4% | 0hPa | 0V | 00:00:00 | 00:00:00 | 00:00:00 | |
| LZ4TU-5 | 2026-09-04 11:40:39 | 43.04448 | 19.99936 | 175° | 82km/h | 9806m | 5.7m/s | -38.3°C | 31.4% | 0hPa | 0V | 00:00:00 | 00:00:00 | 00:00:00 | |
| LZ4TU-5 | 2026-09-04 11:40:34 | 43.04573 | 19.99941 | 195° | 100km/h | 9780m | 6.2m/s | -38.1°C | 32.2% | 0hPa | 0V | 00:00:00 | 00:00:00 | 00:00:00 | |
| LZ4TU-5 | 2026-09-04 11:40:27 | 43.04727 | 19.99987 | 180° | 93km/h | 9740m | 5.8m/s | -37.8°C | 32.3% | 0hPa | 0V | 00:00:00 | 00:00:00 | 00:00:00 | |
| LZ4TU-5 | 2026-09-04 11:40:22 | 43.04840 | 20.00007 | 197° | 84km/h | 9709m | 5.9m/s | -37.5°C | 32.7% | 0hPa | 0V | 00:00:00 | 00:00:00 | 00:00:00 | |
| LZ4TU-5 | 2026-09-04 11:40:11 | 43.05091 | 20.00018 | 186° | 89km/h | 9645m | 8.1m/s | -37.1°C | 37.0% | 0hPa | 0V | 00:00:00 | 00:00:00 | 00:00:00 | |
| LZ4TU-5 | 2026-09-04 11:40:07 | 43.05180 | 20.00036 | 195° | 86km/h | 9618m | 7.3m/s | -36.9°C | 41.0% | 0hPa | 0V | 00:00:00 | 00:00:00 | 00:00:00 | |
| LZ4TU-5 | 2026-09-04 11:38:31 | 43.07230 | 20.00030 | 177° | 73km/h | 9075m | 3.8m/s | -32.2°C | 33.7% | 0hPa | 0V | 00:00:00 | 00:00:00 | 00:00:00 | |
| LZ4TU-5 | 2026-09-04 11:38:27 | 43.07320 | 20.00039 | 187° | 104km/h | 9057m | 4.8m/s | -32.1°C | 33.1% | 0hPa | 0V | 00:00:00 | 00:00:00 | 00:00:00 | |
| LZ4TU-5 | 2026-09-04 11:38:18 | 43.07501 | 20.00043 | 182° | 78km/h | 9005m | 6.3m/s | -31.6°C | 32.2% | 0hPa | 0V | 00:00:00 | 00:00:00 | 00:00:00 |